Time;durP1;ratioP1;P1;durP2;ratioP2;P2;SDS_P1;SDS_P2;PMS_P1;PMS_P2;Temp;Humidity;BMP_temperature;BMP_pressure;BME280_temperature;BME280_humidity;BME280_pressure;Samples;Min_cycle;Max_cycle;Signal;HPM_P1;HPM_P2
2022/11/06 00:01:06;;;;;;;12.85;5.65;;;;;;;7.06;89.25;101140.69;5028614;28;20406;-64
2022/11/06 00:03:34;;;;;;;12.85;4.70;;;;;;;7.06;88.75;101138.91;5020881;28;20144;-63
2022/11/06 00:08:55;;;;;;;8.98;4.35;;;;;;;7.03;88.89;101140.81;5027484;28;20045;-64
2022/11/06 00:11:22;;;;;;;13.15;5.00;;;;;;;6.99;88.52;101140.06;5025457;28;20133;-65
2022/11/06 00:13:51;;;;;;;8.27;4.32;;;;;;;6.94;88.46;101139.38;5029879;28;20140;-65
2022/11/06 00:16:19;;;;;;;15.07;5.00;;;;;;;6.99;88.32;101139.22;5028749;28;20057;-64
2022/11/06 00:18:46;;;;;;;16.20;4.75;;;;;;;6.94;88.28;101139.38;5029303;28;20633;-64
2022/11/06 00:21:20;;;;;;;16.73;6.90;;;;;;;6.90;89.49;101135.16;5023519;28;20058;-63
2022/11/06 00:23:47;;;;;;;14.93;5.60;;;;;;;6.80;89.66;101136.41;5028684;28;20076;-64
2022/11/06 00:26:17;;;;;;;14.88;5.35;;;;;;;6.77;89.95;101136.50;5030332;28;20136;-63
2022/11/06 00:28:45;;;;;;;13.60;5.50;;;;;;;6.78;90.03;101131.19;5031650;28;20127;-63
2022/11/06 00:31:14;;;;;;;13.52;5.20;;;;;;;6.69;90.25;101133.28;5031768;28;20586;-65
2022/11/06 00:33:41;;;;;;;16.23;5.53;;;;;;;6.67;90.43;101130.72;5032340;28;20125;-63
2022/11/06 00:36:11;;;;;;;13.60;4.80;;;;;;;6.65;91.11;101131.69;5032463;28;20756;-66
2022/11/06 00:38:38;;;;;;;7.63;4.72;;;;;;;6.50;92.45;101133.06;5032649;28;20132;-65
2022/11/06 00:41:07;;;;;;;16.05;6.20;;;;;;;6.50;92.33;101131.31;5028342;28;20055;-64
2022/11/06 00:43:35;;;;;;;16.00;4.90;;;;;;;6.56;91.70;101128.47;5031917;28;20059;-64
2022/11/06 00:46:05;;;;;;;17.45;5.65;;;;;;;6.59;91.39;101130.97;5032386;28;20056;-63
2022/11/06 00:48:33;;;;;;;10.32;4.93;;;;;;;6.66;90.56;101126.38;5030976;28;20045;-63
2022/11/06 00:51:04;;;;;;;13.18;5.95;;;;;;;6.69;91.18;101128.91;5032534;28;20049;-63
2022/11/06 00:53:31;;;;;;;18.77;6.22;;;;;;;6.59;91.36;101127.53;5028509;28;20050;-64
2022/11/06 00:56:09;;;;;;;10.85;5.32;;;;;;;6.65;91.35;101136.91;5031832;28;20056;-64
2022/11/06 00:58:37;;;;;;;15.15;4.70;;;;;;;6.62;91.11;101134.38;5034524;28;20057;-64
2022/11/06 01:01:12;;;;;;;11.95;4.95;;;;;;;6.51;92.03;101130.38;5027595;28;20487;-64
2022/11/06 01:03:42;;;;;;;9.27;5.50;;;;;;;6.52;91.13;101126.84;5024150;28;20053;-64
2022/11/06 01:06:12;;;;;;;11.27;5.15;;;;;;;6.51;91.82;101126.91;5031437;28;20136;-64
2022/11/06 01:08:39;;;;;;;13.20;4.72;;;;;;;6.54;91.10;101127.69;5031353;28;20046;-63
2022/11/06 01:11:09;;;;;;;9.55;5.45;;;;;;;6.57;91.26;101132.81;5033204;28;20046;-63
2022/11/06 01:13:36;;;;;;;16.23;7.03;;;;;;;6.56;91.76;101133.69;5031511;28;20061;-65
2022/11/06 01:16:06;;;;;;;14.60;6.15;;;;;;;6.47;91.96;101131.41;5029128;28;20053;-64
2022/11/06 01:18:34;;;;;;;11.00;5.15;;;;;;;6.37;92.71;101124.78;5031347;28;20136;-63
2022/11/06 01:21:13;;;;;;;17.00;7.05;;;;;;;6.43;91.87;101119.31;5031605;28;20067;-63
2022/11/06 01:23:41;;;;;;;13.48;5.60;;;;;;;6.49;91.63;101116.53;5032713;28;20067;-64
2022/11/06 01:26:09;;;;;;;11.15;5.10;;;;;;;6.53;91.30;101120.75;5025156;28;20053;-64
2022/11/06 01:28:37;;;;;;;9.77;4.43;;;;;;;6.56;91.21;101115.38;5032349;28;20144;-64
2022/11/06 01:31:08;;;;;;;11.68;5.03;;;;;;;6.59;91.11;101119.66;5033239;28;20045;-64
2022/11/06 01:33:35;;;;;;;11.68;5.10;;;;;;;6.60;90.47;101109.16;5030639;28;20117;-64
2022/11/06 01:36:03;;;;;;;12.27;5.05;;;;;;;6.62;89.97;101103.88;5029866;28;20501;-63
2022/11/06 01:38:30;;;;;;;13.88;5.30;;;;;;;6.63;89.82;101100.34;5030713;28;20164;-62
2022/11/06 01:40:57;;;;;;;14.30;5.72;;;;;;;6.54;90.28;101098.06;5026194;28;20053;-63
2022/11/06 01:43:49;;;;;;;12.82;5.68;;;;;;;6.55;90.38;101103.22;5030940;28;20581;-63
2022/11/06 01:46:17;;;;;;;13.43;6.32;;;;;;;6.48;91.26;101099.09;5029544;28;20055;-64
2022/11/06 01:48:49;;;;;;;11.50;6.07;;;;;;;6.42;91.42;101101.94;5024940;28;20495;-63
2022/11/06 01:51:17;;;;;;;18.13;5.47;;;;;;;6.45;91.13;101095.75;5031990;28;20075;-64
2022/11/06 01:53:44;;;;;;;16.38;6.78;;;;;;;6.49;91.29;101090.38;5030005;28;20064;-64
2022/11/06 01:56:12;;;;;;;12.00;5.80;;;;;;;6.55;91.08;101079.69;5030397;28;20637;-63
2022/11/06 01:58:41;;;;;;;13.73;5.80;;;;;;;6.55;90.46;101084.91;5034326;28;20378;-63
2022/11/06 02:01:08;;;;;;;17.08;5.93;;;;;;;6.54;90.64;101077.13;5038750;28;20124;-65
2022/11/06 02:03:36;;;;;;;9.82;5.43;;;;;;;6.55;90.61;101079.69;5033971;28;20056;-64
2022/11/06 02:06:04;;;;;;;14.98;6.65;;;;;;;6.56;90.91;101091.00;5037956;28;20052;-64
2022/11/06 02:08:32;;;;;;;10.98;5.75;;;;;;;6.56;90.85;101081.38;5031923;28;20132;-62
2022/11/06 02:10:59;;;;;;;14.35;6.63;;;;;;;6.56;90.74;101076.16;5031354;28;20505;-64
2022/11/06 02:13:32;;;;;;;13.05;6.68;;;;;;;6.58;90.66;101066.50;5028377;28;20054;-64
2022/11/06 02:16:23;;;;;;;15.65;6.35;;;;;;;6.60;90.69;101066.44;5031253;28;20628;-63
2022/11/06 02:19:28;;;;;;;13.20;7.05;;;;;;;6.62;90.32;101066.38;5031624;28;20084;-63
2022/11/06 02:22:09;;;;;;;10.55;5.72;;;;;;;6.64;90.20;101061.97;5031830;28;20073;-63
2022/11/06 02:25:11;;;;;;;12.05;6.82;;;;;;;6.63;89.88;101063.72;5029602;28;20062;-64
2022/11/06 02:27:46;;;;;;;13.45;6.40;;;;;;;6.57;90.54;101056.97;5028964;28;20050;-63
2022/11/06 02:30:14;;;;;;;11.70;6.55;;;;;;;6.56;90.71;101055.22;5009424;28;20429;-65
2022/11/06 02:32:58;;;;;;;12.90;6.47;;;;;;;6.58;91.13;101060.41;5027252;28;20514;-64
2022/11/06 02:35:52;;;;;;;14.57;6.70;;;;;;;6.49;90.99;101053.75;5027681;28;20053;-65
2022/11/06 02:38:23;;;;;;;14.15;6.65;;;;;;;6.51;90.91;101048.44;5029987;28;20049;-64
2022/11/06 02:40:53;;;;;;;13.63;7.20;;;;;;;6.53;90.57;101041.44;5034331;28;20053;-63
2022/11/06 02:43:24;;;;;;;19.55;7.43;;;;;;;6.56;91.31;101050.00;5028001;28;20050;-62
2022/11/06 02:45:54;;;;;;;15.55;6.50;;;;;;;6.59;90.94;101054.28;5029048;28;20062;-64
2022/11/06 02:48:27;;;;;;;11.52;6.75;;;;;;;6.63;91.25;101058.50;5028990;28;20060;-63
2022/11/06 02:50:56;;;;;;;12.52;6.75;;;;;;;6.61;90.71;101062.91;5028894;28;20056;-65
2022/11/06 02:53:25;;;;;;;16.55;7.28;;;;;;;6.60;90.70;101053.34;5028501;28;20053;-64
2022/11/06 02:55:57;;;;;;;12.75;6.30;;;;;;;6.59;90.88;101054.28;5029361;28;20132;-64
2022/11/06 02:58:32;;;;;;;14.65;7.07;;;;;;;6.63;90.92;101049.78;5026939;28;20054;-63
2022/11/06 03:01:04;;;;;;;21.48;6.68;;;;;;;6.64;90.65;101048.88;5027962;28;20423;-64
2022/11/06 03:03:34;;;;;;;12.68;6.22;;;;;;;6.65;90.64;101048.81;5023192;28;20063;-62
2022/11/06 03:06:07;;;;;;;14.50;6.75;;;;;;;6.64;90.35;101049.72;5023708;28;20045;-63
2022/11/06 03:08:39;;;;;;;14.55;6.70;;;;;;;6.59;90.47;101049.88;5029306;28;20522;-64
2022/11/06 03:11:27;;;;;;;10.95;6.25;;;;;;;6.51;91.39;101046.69;5028162;28;20049;-63
2022/11/06 03:14:06;;;;;;;10.60;6.43;;;;;;;6.48;91.15;101043.31;5028280;28;20052;-63
2022/11/06 03:16:36;;;;;;;17.20;6.65;;;;;;;6.50;91.27;101051.97;5027950;28;20641;-64
2022/11/06 03:19:10;;;;;;;15.68;6.63;;;;;;;6.51;91.36;101051.06;5029589;28;20364;-63
2022/11/06 03:21:55;;;;;;;12.93;7.43;;;;;;;6.50;91.31;101051.97;5028778;28;20060;-64
2022/11/06 03:24:47;;;;;;;17.50;6.82;;;;;;;6.49;91.47;101045.91;5024642;28;20378;-63
2022/11/06 03:27:21;;;;;;;11.77;6.07;;;;;;;6.52;91.89;101051.00;5016962;28;20049;-64
2022/11/06 03:30:02;;;;;;;18.60;6.55;;;;;;;6.53;91.87;101042.28;5026947;28;20124;-64
2022/11/06 03:32:35;;;;;;;13.20;6.28;;;;;;;6.55;91.27;101042.22;5028545;28;20064;-63
2022/11/06 03:35:09;;;;;;;12.90;6.97;;;;;;;6.49;91.19;101048.53;5025937;28;20055;-64
2022/11/06 03:37:41;;;;;;;10.55;6.55;;;;;;;6.43;91.60;101045.25;5027684;28;20136;-64
2022/11/06 03:40:12;;;;;;;12.38;6.45;;;;;;;6.46;91.40;101053.84;5027411;28;20057;-63
2022/11/06 03:42:40;;;;;;;9.88;5.50;;;;;;;6.38;91.42;101041.94;5030297;28;20048;-63
2022/11/06 03:45:14;;;;;;;15.73;7.22;;;;;;;6.30;91.80;101037.84;5030349;28;20136;-64
2022/11/06 03:48:12;;;;;;;14.75;6.70;;;;;;;6.15;93.53;101046.19;5026893;28;20548;-64
2022/11/06 03:50:59;;;;;;;10.27;6.78;;;;;;;6.09;93.72;101039.44;5026722;28;20128;-65
2022/11/06 03:53:29;;;;;;;12.00;6.53;;;;;;;6.06;93.46;101036.91;5026135;28;20408;-63
2022/11/06 03:56:04;;;;;;;14.93;7.18;;;;;;;6.05;93.83;101034.34;5027174;28;20059;-64
2022/11/06 03:58:36;;;;;;;12.32;6.82;;;;;;;5.99;94.32;101029.31;5030134;28;20076;-62
2022/11/06 04:01:07;;;;;;;16.10;8.20;;;;;;;5.99;94.21;101035.41;5025612;28;20562;-64
2022/11/06 04:03:38;;;;;;;12.82;6.55;;;;;;;6.05;94.16;101029.13;5015819;28;20100;-62
2022/11/06 04:06:13;;;;;;;12.57;7.22;;;;;;;5.90;95.11;101024.38;5027967;28;20050;-63
2022/11/06 04:14:14;;;;;;;17.35;7.10;;;;;;;6.03;94.66;101023.97;5026638;28;20394;-63
2022/11/06 04:16:48;;;;;;;17.92;6.50;;;;;;;6.04;94.19;101025.66;5027727;28;20049;-64
2022/11/06 04:19:17;;;;;;;10.75;6.10;;;;;;;6.02;93.92;101024.00;5025853;28;20054;-64
2022/11/06 04:22:22;;;;;;;8.63;5.93;;;;;;;6.04;93.78;101022.19;5030685;28;20140;-64
2022/11/06 04:28:20;;;;;;;15.32;7.05;;;;;;;6.07;93.52;101014.22;4975823;28;20049;-63
2022/11/06 04:31:20;;;;;;;18.10;6.87;;;;;;;5.99;93.74;101013.63;4985566;28;20054;-63
2022/11/06 04:34:01;;;;;;;13.32;6.32;;;;;;;6.05;94.02;101016.06;5016897;28;20132;-65
2022/11/06 04:36:42;;;;;;;11.63;6.90;;;;;;;6.12;94.27;101021.91;5027996;28;20061;-63
2022/11/06 04:39:21;;;;;;;11.45;6.72;;;;;;;6.12;94.08;101020.16;5024892;28;20065;-65
2022/11/06 04:42:09;;;;;;;14.20;6.88;;;;;;;6.15;93.01;101025.28;5027387;28;20152;-66
2022/11/06 04:44:40;;;;;;;13.68;7.13;;;;;;;6.14;93.17;101020.13;5024567;28;20103;-65
2022/11/06 04:47:10;;;;;;;13.07;7.25;;;;;;;5.96;93.79;101021.59;5027001;28;20045;-63
2022/11/06 04:49:39;;;;;;;19.23;7.50;;;;;;;5.89;94.39;101013.06;5028353;28;20052;-63
2022/11/06 04:52:10;;;;;;;12.60;6.80;;;;;;;5.86;94.61;101015.78;5022913;28;20124;-64
2022/11/06 04:54:38;;;;;;;13.45;7.97;;;;;;;5.87;94.56;101008.81;5025794;28;20049;-63
2022/11/06 04:57:05;;;;;;;14.98;6.72;;;;;;;5.87;95.14;101008.81;5028467;28;20053;-64
2022/11/06 04:59:34;;;;;;;20.75;8.15;;;;;;;5.78;95.04;101013.44;5030226;28;20141;-64
2022/11/06 05:02:02;;;;;;;13.00;6.97;;;;;;;5.76;94.78;101004.81;5023287;28;20050;-63
2022/11/06 05:04:30;;;;;;;12.32;7.22;;;;;;;5.75;96.07;101000.47;5022224;28;20518;-63
2022/11/06 05:06:58;;;;;;;14.43;7.63;;;;;;;5.72;95.65;100990.13;5026399;28;20060;-63
2022/11/06 05:09:26;;;;;;;12.13;6.45;;;;;;;5.71;95.10;100990.16;5028883;28;20060;-66
2022/11/06 05:11:53;;;;;;;11.50;6.38;;;;;;;5.74;95.54;100998.75;5028386;28;20050;-63
2022/11/06 05:14:20;;;;;;;12.02;6.50;;;;;;;5.79;95.42;101002.06;5032045;28;20128;-64
2022/11/06 05:16:47;;;;;;;15.15;6.95;;;;;;;5.82;95.42;101004.59;5032245;28;20583;-63
2022/11/06 05:19:16;;;;;;;10.65;7.28;;;;;;;5.72;95.78;100997.09;5032080;28;20136;-63
2022/11/06 05:24:28;;;;;;;11.45;7.00;;;;;;;5.67;95.69;100997.25;5031105;28;20057;-64
2022/11/06 05:26:55;;;;;;;13.52;6.88;;;;;;;5.71;95.51;100995.38;5031971;28;20054;-64
2022/11/06 05:29:26;;;;;;;12.27;6.55;;;;;;;5.71;95.65;101005.84;5032460;28;20053;-64
2022/11/06 05:31:53;;;;;;;11.52;6.38;;;;;;;5.62;95.97;100999.16;5031008;28;20509;-63
2022/11/06 05:34:20;;;;;;;11.30;6.18;;;;;;;5.67;96.28;100999.84;5030961;28;20049;-63
2022/11/06 05:36:47;;;;;;;13.48;5.80;;;;;;;5.69;96.35;100997.22;5030868;28;20067;-63
2022/11/06 05:39:14;;;;;;;10.98;7.13;;;;;;;5.73;96.22;100990.97;5028526;28;20059;-63
2022/11/06 05:41:41;;;;;;;13.43;7.75;;;;;;;5.67;96.38;100988.53;5027905;28;20058;-63
2022/11/06 05:44:09;;;;;;;14.40;7.15;;;;;;;5.66;95.99;100989.47;5027968;28;20045;-63
2022/11/06 05:46:36;;;;;;;14.23;6.65;;;;;;;5.68;96.18;100990.28;5031805;28;20645;-64
2022/11/06 05:49:18;;;;;;;12.27;7.03;;;;;;;5.72;95.76;100992.75;5027813;28;20056;-63
2022/11/06 05:51:46;;;;;;;11.95;6.47;;;;;;;5.76;95.36;100986.50;5026618;28;20056;-64
2022/11/06 05:54:13;;;;;;;9.80;6.97;;;;;;;5.82;94.67;100996.75;5028119;28;20045;-63
2022/11/06 05:56:40;;;;;;;14.20;7.10;;;;;;;5.61;95.37;101000.06;5034339;28;20061;-63
2022/11/06 05:59:07;;;;;;;13.73;7.25;;;;;;;5.42;96.65;101007.63;5031256;28;20088;-64
2022/11/06 06:01:34;;;;;;;13.93;7.10;;;;;;;5.33;97.26;101002.69;5027174;28;20649;-63
2022/11/06 06:04:02;;;;;;;13.93;8.23;;;;;;;5.47;96.71;100997.03;5023256;28;20050;-63
2022/11/06 06:06:29;;;;;;;11.27;6.95;;;;;;;5.51;96.42;100999.50;5030524;28;20149;-64
2022/11/06 06:08:56;;;;;;;11.70;6.82;;;;;;;5.52;96.41;101003.81;5027731;28;20045;-65
2022/11/06 06:11:23;;;;;;;11.07;7.15;;;;;;;5.50;96.39;100996.94;5026080;28;20530;-64
2022/11/06 06:13:51;;;;;;;13.15;7.28;;;;;;;5.44;96.38;100997.97;5031246;28;20053;-64
2022/11/06 06:16:18;;;;;;;12.48;7.43;;;;;;;5.38;96.48;101005.16;5030613;28;20045;-62
2022/11/06 06:18:48;;;;;;;12.68;7.55;;;;;;;5.43;96.68;101004.09;5027359;28;20158;-63
2022/11/06 06:21:15;;;;;;;12.43;6.82;;;;;;;5.48;96.64;101002.19;5030425;28;20088;-64
2022/11/06 06:23:42;;;;;;;12.35;7.60;;;;;;;5.49;95.74;100997.84;5029918;28;20046;-64
2022/11/06 06:26:10;;;;;;;15.15;7.45;;;;;;;5.49;95.81;101001.31;5030381;28;20137;-64
2022/11/06 06:28:37;;;;;;;14.43;6.97;;;;;;;5.53;95.30;101009.88;5028361;28;20061;-62
2022/11/06 06:31:05;;;;;;;13.50;7.68;;;;;;;5.49;95.52;101003.94;5029845;28;20493;-63
2022/11/06 06:33:33;;;;;;;11.93;7.35;;;;;;;5.56;95.73;101009.81;5029642;28;20067;-63
2022/11/06 06:36:04;;;;;;;13.38;7.22;;;;;;;5.52;95.92;101008.19;5026841;28;20052;-64
2022/11/06 06:38:31;;;;;;;14.65;6.65;;;;;;;5.52;95.82;101016.88;5029905;28;20053;-63
2022/11/06 06:41:03;;;;;;;14.32;7.53;;;;;;;5.58;96.10;101016.69;5027159;28;20080;-63
2022/11/06 06:43:30;;;;;;;18.13;8.18;;;;;;;5.55;95.91;101015.94;5028120;28;20063;-64
2022/11/06 06:46:03;;;;;;;13.80;7.70;;;;;;;5.50;96.21;101017.84;5027584;28;20136;-65
2022/11/06 06:48:34;;;;;;;13.02;7.07;;;;;;;5.58;96.02;101024.53;5028698;28;20169;-63
2022/11/06 06:51:02;;;;;;;14.98;7.53;;;;;;;5.62;95.58;101014.81;5030798;28;20671;-64
2022/11/06 06:53:29;;;;;;;13.55;7.30;;;;;;;5.66;95.21;101020.81;5033562;28;20207;-63
2022/11/06 06:56:00;;;;;;;11.18;7.57;;;;;;;5.68;95.29;101014.63;5029980;28;20041;-63
2022/11/06 06:58:28;;;;;;;10.60;6.63;;;;;;;5.71;94.95;101018.91;5034174;28;20112;-63
2022/11/06 07:01:03;;;;;;;13.88;7.25;;;;;;;5.71;94.80;101024.97;5027585;28;20049;-63
2022/11/06 07:03:31;;;;;;;12.98;7.43;;;;;;;5.68;95.36;101026.84;5022185;28;20053;-64
2022/11/06 07:05:58;;;;;;;12.80;7.40;;;;;;;5.63;95.38;101027.00;5029284;28;20044;-63
2022/11/06 07:08:26;;;;;;;15.02;8.10;;;;;;;5.65;95.91;101026.94;5027371;28;20054;-63
2022/11/06 07:11:05;;;;;;;11.20;7.22;;;;;;;5.68;95.64;101030.31;5029392;28;20053;-63
2022/11/06 07:13:32;;;;;;;10.15;7.70;;;;;;;5.64;95.43;101022.63;5031259;28;20056;-64
2022/11/06 07:16:04;;;;;;;14.95;8.88;;;;;;;5.55;96.75;101018.53;5028284;28;20053;-64
2022/11/06 07:18:32;;;;;;;17.30;7.47;;;;;;;5.54;96.97;101025.53;5029059;28;20053;-63
2022/11/06 07:21:00;;;;;;;13.77;7.63;;;;;;;5.62;96.75;101021.81;5038932;28;20046;-65
2022/11/06 07:23:27;;;;;;;15.85;9.02;;;;;;;5.65;96.66;101024.31;5040654;28;20141;-62
2022/11/06 07:25:54;;;;;;;15.02;8.05;;;;;;;5.65;96.78;101025.19;5037105;28;20045;-62
2022/11/06 07:28:21;;;;;;;14.45;8.38;;;;;;;5.73;96.26;101027.56;5035212;28;20518;-62
2022/11/06 07:30:48;;;;;;;16.35;7.45;;;;;;;5.81;96.50;101028.16;5029902;28;20176;-63
2022/11/06 07:33:15;;;;;;;12.40;8.40;;;;;;;5.89;96.05;101022.66;5027599;28;20056;-63
2022/11/06 07:35:42;;;;;;;13.90;8.13;;;;;;;5.85;95.93;101014.06;5029085;28;20037;-64
2022/11/06 07:38:09;;;;;;;12.23;8.27;;;;;;;5.88;95.63;101013.97;5024915;28;20049;-63
2022/11/06 07:40:37;;;;;;;12.15;8.02;;;;;;;5.97;95.83;101013.69;5029304;28;20057;-62
2022/11/06 07:43:05;;;;;;;11.80;7.85;;;;;;;6.00;95.54;101017.97;5029147;28;20092;-63
2022/11/06 07:45:33;;;;;;;11.88;7.55;;;;;;;6.11;95.45;101022.84;5028778;28;20053;-63
2022/11/06 07:48:00;;;;;;;12.57;7.15;;;;;;;6.10;95.00;101032.44;5025416;28;20050;-63
2022/11/06 07:50:28;;;;;;;12.60;8.88;;;;;;;6.02;95.34;101021.38;5025319;28;20057;-63
2022/11/06 07:52:55;;;;;;;12.57;8.13;;;;;;;6.09;95.01;101010.69;5029722;28;20051;-64
2022/11/06 07:55:22;;;;;;;11.52;7.97;;;;;;;6.16;94.95;101026.13;5032004;28;20045;-64
2022/11/06 07:57:49;;;;;;;13.05;7.72;;;;;;;6.22;94.82;101021.56;5026858;28;20057;-63
2022/11/06 08:00:17;;;;;;;15.23;8.25;;;;;;;6.31;94.87;101021.25;5027669;28;20486;-63
2022/11/06 08:02:44;;;;;;;11.50;8.27;;;;;;;6.36;94.53;101017.63;5026345;28;20049;-64
2022/11/06 08:05:11;;;;;;;15.80;8.93;;;;;;;6.35;93.99;101014.16;5028726;28;20434;-64
2022/11/06 08:07:39;;;;;;;16.00;9.15;;;;;;;6.33;94.36;101019.41;5027601;28;20140;-64
2022/11/06 08:10:06;;;;;;;13.35;8.07;;;;;;;6.39;94.18;101023.56;5028966;28;20079;-65
2022/11/06 08:12:33;;;;;;;11.63;7.40;;;;;;;6.48;94.66;101022.41;5029365;28;20062;-61
2022/11/06 08:15:01;;;;;;;12.90;8.85;;;;;;;6.52;93.58;101017.00;5023804;28;20083;-63
2022/11/06 08:17:29;;;;;;;10.95;7.82;;;;;;;6.53;93.82;101012.66;5028806;28;20405;-64
2022/11/06 08:19:56;;;;;;;16.02;8.30;;;;;;;6.59;93.29;101015.88;5028439;28;20506;-64
2022/11/06 08:22:24;;;;;;;11.60;7.70;;;;;;;6.69;93.69;100999.84;5030254;28;20072;-64
2022/11/06 08:24:51;;;;;;;18.45;9.57;;;;;;;6.66;93.59;100999.94;5028715;28;20525;-64
2022/11/06 08:27:18;;;;;;;11.30;8.50;;;;;;;6.71;93.13;101009.38;5026001;28;20152;-64
2022/11/06 08:29:45;;;;;;;14.55;8.13;;;;;;;6.82;92.78;101003.72;5028906;28;20057;-63
2022/11/06 08:32:18;;;;;;;16.67;9.25;;;;;;;6.89;93.08;101005.22;5028309;28;20049;-63
2022/11/06 08:34:47;;;;;;;16.67;9.35;;;;;;;6.96;92.53;100998.81;5027991;28;20045;-64
2022/11/06 08:37:15;;;;;;;13.45;7.95;;;;;;;7.01;92.49;101011.72;5025722;28;20124;-63
2022/11/06 08:39:43;;;;;;;13.23;8.57;;;;;;;7.12;91.84;101004.34;5029457;28;20481;-64
2022/11/06 08:42:10;;;;;;;12.65;7.90;;;;;;;7.18;91.86;100998.00;5026969;28;20050;-64
2022/11/06 08:44:37;;;;;;;17.85;8.15;;;;;;;7.22;91.51;100996.97;5023235;28;20065;-64
2022/11/06 08:47:05;;;;;;;13.20;7.65;;;;;;;7.24;90.84;100990.75;5029859;28;20053;-63
2022/11/06 08:49:32;;;;;;;14.38;8.75;;;;;;;7.32;90.94;100977.34;5032560;28;20059;-63
2022/11/06 08:51:59;;;;;;;11.63;7.30;;;;;;;7.41;91.11;100986.63;5030660;28;20049;-64
2022/11/06 08:54:26;;;;;;;11.52;8.05;;;;;;;7.52;90.43;100985.28;5028252;28;20140;-64
2022/11/06 08:56:53;;;;;;;10.82;8.75;;;;;;;7.65;89.68;100971.66;5031416;28;20061;-63
2022/11/06 08:59:21;;;;;;;9.80;7.28;;;;;;;7.70;89.16;100975.81;5036155;28;20075;-64
2022/11/06 09:01:48;;;;;;;10.63;7.38;;;;;;;7.78;88.76;100983.34;5031357;28;20067;-63
2022/11/06 09:04:15;;;;;;;12.38;7.60;;;;;;;7.82;89.31;100979.69;5026733;28;20058;-63
2022/11/06 09:06:42;;;;;;;12.55;8.07;;;;;;;7.85;88.28;100977.78;5029004;28;20052;-63
2022/11/06 09:09:09;;;;;;;11.38;8.07;;;;;;;7.85;88.41;100987.44;5031731;28;20154;-64
2022/11/06 09:11:36;;;;;;;10.00;7.28;;;;;;;7.86;88.49;100979.47;5031610;28;20045;-64
2022/11/06 09:14:03;;;;;;;13.82;7.18;;;;;;;7.96;88.75;100982.56;5026626;28;20059;-63
2022/11/06 09:16:31;;;;;;;13.43;8.63;;;;;;;8.04;88.19;100984.88;5032039;28;20053;-64
2022/11/06 09:18:58;;;;;;;10.18;7.60;;;;;;;8.10;87.31;100977.63;5028865;28;20115;-63
2022/11/06 09:21:25;;;;;;;9.30;6.60;;;;;;;8.17;87.20;100974.72;5027704;28;20107;-64
2022/11/06 09:23:52;;;;;;;11.73;7.63;;;;;;;8.25;86.82;100978.72;5027874;28;20132;-64
2022/11/06 09:26:19;;;;;;;9.88;7.18;;;;;;;8.35;86.25;100985.25;5031886;28;21055;-64
2022/11/06 09:28:46;;;;;;;13.77;7.70;;;;;;;8.43;86.43;100984.09;5029661;28;20057;-63
2022/11/06 09:31:13;;;;;;;11.10;6.78;;;;;;;8.50;86.33;100975.03;5031842;28;20045;-64
2022/11/06 09:33:41;;;;;;;8.73;6.80;;;;;;;8.57;85.73;100997.47;5026008;28;20053;-64
2022/11/06 09:36:08;;;;;;;12.27;6.78;;;;;;;8.62;84.96;100983.22;5030890;28;20556;-64
2022/11/06 09:38:35;;;;;;;12.20;7.03;;;;;;;8.63;84.19;100969.16;5031704;28;20054;-63
2022/11/06 09:41:02;;;;;;;11.45;6.57;;;;;;;8.55;83.48;100987.00;5029722;28;20053;-64
2022/11/06 09:44:09;;;;;;;10.27;6.88;;;;;;;8.54;84.61;100980.06;5030402;28;20053;-64
2022/11/06 09:46:44;;;;;;;9.43;6.10;;;;;;;8.52;83.94;100981.06;5027975;28;20068;-64
2022/11/06 09:49:25;;;;;;;9.27;5.80;;;;;;;8.65;84.56;100982.22;5030626;28;20067;-64
2022/11/06 09:52:01;;;;;;;9.85;6.63;;;;;;;8.87;84.22;100988.22;5029445;28;20445;-64
2022/11/06 09:54:36;;;;;;;10.05;5.97;;;;;;;8.92;82.98;100980.13;5030092;28;20053;-63
2022/11/06 09:57:14;;;;;;;10.07;5.95;;;;;;;8.97;82.86;100977.28;5043357;28;20097;-64
2022/11/06 09:59:41;;;;;;;10.43;5.68;;;;;;;9.04;82.27;100968.16;5031038;28;20049;-64
2022/11/06 10:02:23;;;;;;;13.35;6.30;;;;;;;9.07;80.83;100973.28;5029334;28;20060;-64
2022/11/06 10:05:09;;;;;;;11.35;5.72;;;;;;;9.04;81.57;100970.78;5027837;28;20059;-63
2022/11/06 10:07:38;;;;;;;8.70;5.72;;;;;;;9.13;82.32;100973.00;5029420;28;20053;-63
2022/11/06 10:10:12;;;;;;;10.88;5.90;;;;;;;9.26;81.76;100968.00;5028905;28;20050;-63
2022/11/06 10:13:03;;;;;;;10.93;5.57;;;;;;;9.39;80.84;100972.59;5028800;28;20054;-63
2022/11/06 10:16:05;;;;;;;9.23;5.05;;;;;;;9.48;79.72;100962.56;5026559;28;20053;-63
2022/11/06 10:18:45;;;;;;;11.82;6.00;;;;;;;9.55;80.03;100956.09;5028200;28;20053;-63
2022/11/06 10:21:21;;;;;;;9.00;5.60;;;;;;;9.53;78.80;100955.31;5029536;28;20060;-63
2022/11/06 10:23:59;;;;;;;8.93;4.90;;;;;;;9.50;80.32;100956.31;5031022;28;20053;-63
2022/11/06 10:26:40;;;;;;;9.52;6.05;;;;;;;9.56;80.22;100950.75;5031119;28;20106;-63
2022/11/06 10:29:26;;;;;;;11.85;5.78;;;;;;;9.60;79.78;100944.41;5033761;28;20046;-64
2022/11/06 10:32:31;;;;;;;8.35;5.28;;;;;;;9.66;79.97;100937.16;5032017;28;20136;-63
2022/11/06 10:35:02;;;;;;;12.27;4.88;;;;;;;9.75;78.80;100940.16;5029416;28;20053;-64
2022/11/06 10:37:39;;;;;;;10.13;5.90;;;;;;;9.70;77.91;100936.91;5013756;28;20655;-61
2022/11/06 10:40:14;;;;;;;11.20;5.60;;;;;;;9.72;78.11;100931.56;5031789;28;20041;-64
2022/11/06 10:42:42;;;;;;;8.77;5.20;;;;;;;9.77;78.44;100927.81;5029023;28;20061;-65
2022/11/06 10:45:14;;;;;;;8.95;5.45;;;;;;;10.04;78.37;100916.78;5022654;28;20057;-63
2022/11/06 10:47:44;;;;;;;10.77;6.07;;;;;;;10.48;76.76;100930.25;5033299;28;20079;-62
2022/11/06 10:50:13;;;;;;;9.35;5.32;;;;;;;10.83;73.63;100920.44;5030845;28;20149;-63
2022/11/06 10:52:43;;;;;;;6.47;4.95;;;;;;;10.89;73.80;100913.97;5025362;28;20060;-63
2022/11/06 10:55:46;;;;;;;9.45;5.25;;;;;;;10.96;73.52;100914.50;5025175;28;20049;-63
2022/11/06 10:58:17;;;;;;;12.95;4.93;;;;;;;11.08;72.69;100905.91;5031672;28;20049;-63
2022/11/06 11:00:44;;;;;;;8.68;5.50;;;;;;;11.11;72.24;100903.94;5029929;28;20053;-63
2022/11/06 11:03:15;;;;;;;9.27;5.20;;;;;;;11.04;72.24;100907.88;5027712;28;20056;-63
2022/11/06 11:05:43;;;;;;;11.15;4.78;;;;;;;11.26;72.84;100898.75;5024381;28;20101;-63
2022/11/06 11:08:29;;;;;;;10.10;5.50;;;;;;;11.43;71.67;100897.75;5029560;28;20528;-64
2022/11/06 11:11:13;;;;;;;8.50;5.15;;;;;;;11.35;70.93;100899.06;5026613;28;20053;-63
2022/11/06 11:13:41;;;;;;;9.02;4.55;;;;;;;11.43;71.43;100888.06;5029075;28;20061;-64
2022/11/06 11:16:14;;;;;;;6.68;4.55;;;;;;;11.69;71.38;100886.53;5021729;28;20041;-63
2022/11/06 11:18:41;;;;;;;9.57;5.00;;;;;;;11.94;69.65;100878.03;5024373;28;20053;-64
2022/11/06 11:21:17;;;;;;;9.25;4.85;;;;;;;12.14;68.26;100875.03;5030190;28;20160;-63
2022/11/06 11:23:45;;;;;;;9.35;4.35;;;;;;;12.21;67.75;100862.31;5033534;28;20060;-63
2022/11/06 11:26:20;;;;;;;8.60;4.65;;;;;;;12.27;66.98;100863.72;5029488;28;20593;-64
2022/11/06 11:28:53;;;;;;;6.45;3.88;;;;;;;12.38;67.56;100867.41;5026723;28;20068;-62
2022/11/06 11:31:28;;;;;;;8.63;5.07;;;;;;;12.57;65.34;100868.88;5028017;28;20079;-63
2022/11/06 11:33:57;;;;;;;10.95;5.75;;;;;;;12.57;65.52;100867.06;5025627;28;20059;-63
2022/11/06 11:36:24;;;;;;;9.05;5.30;;;;;;;12.47;65.26;100891.50;5027594;28;20141;-62
2022/11/06 11:38:51;;;;;;;6.97;4.95;;;;;;;12.40;65.42;100864.66;5028761;28;20060;-63
2022/11/06 11:41:18;;;;;;;6.22;4.00;;;;;;;12.95;65.09;100881.41;5024120;28;20057;-62
2022/11/06 11:44:12;;;;;;;8.90;4.78;;;;;;;13.44;63.38;100855.25;5029849;28;20063;-63
2022/11/06 11:46:50;;;;;;;8.00;4.07;;;;;;;13.84;62.54;100871.94;5027494;28;20050;-62
2022/11/06 11:49:33;;;;;;;7.38;4.05;;;;;;;14.35;61.34;100853.34;5026330;28;20045;-62
2022/11/06 11:52:02;;;;;;;5.53;3.92;;;;;;;14.87;59.72;100848.78;5028981;28;21385;-63
2022/11/06 11:54:31;;;;;;;6.82;3.83;;;;;;;15.35;58.58;100856.69;5026915;28;20144;-63
2022/11/06 11:57:07;;;;;;;6.28;3.65;;;;;;;15.55;55.78;100860.50;5027855;28;20528;-63
2022/11/06 11:59:42;;;;;;;7.28;3.33;;;;;;;15.81;57.16;100848.78;5028852;28;20053;-63
2022/11/06 12:02:17;;;;;;;6.72;3.50;;;;;;;16.09;54.88;100843.97;5025740;28;20045;-62